createdAt,value
2022-08-04T00:00:54.673Z,24.26
2022-08-04T00:01:54.692Z,24.33
2022-08-04T00:02:54.637Z,24.24
2022-08-04T00:03:55.540Z,24.23
2022-08-04T00:04:54.602Z,24.17
2022-08-04T00:05:54.579Z,24.16
2022-08-04T00:06:54.564Z,24.11
2022-08-04T00:07:54.546Z,24.14
2022-08-04T00:08:55.750Z,24.18
2022-08-04T00:09:54.533Z,24.01
2022-08-04T00:10:54.488Z,24.01
2022-08-04T00:11:54.472Z,24.02
2022-08-04T00:12:54.456Z,24.10
2022-08-04T00:13:58.078Z,23.96
2022-08-04T00:14:55.448Z,24.08
2022-08-04T00:15:54.398Z,24.02
2022-08-04T00:16:54.381Z,24.03
2022-08-04T00:17:54.358Z,24.10
2022-08-04T00:18:54.340Z,24.16
2022-08-04T00:19:55.199Z,24.10
2022-08-04T00:20:54.304Z,24.02
2022-08-04T00:21:54.280Z,24.06
2022-08-04T00:22:54.263Z,24.11
2022-08-04T00:24:11.933Z,24.06
2022-08-04T00:24:55.252Z,24.11
2022-08-04T00:25:54.208Z,24.03
2022-08-04T00:26:54.190Z,24.08
2022-08-04T00:27:54.171Z,24.03
2022-08-04T00:28:54.153Z,24.13
2022-08-04T00:29:54.165Z,24.06
2022-08-04T00:30:54.115Z,24.01
2022-08-04T00:31:57.443Z,24.01
2022-08-04T00:32:54.079Z,23.84
2022-08-04T00:33:54.059Z,23.81
2022-08-04T00:34:54.067Z,23.77
2022-08-04T00:35:54.019Z,23.91
2022-08-04T00:36:54.004Z,23.76
2022-08-04T00:37:53.985Z,23.84
2022-08-04T00:38:53.992Z,23.68
2022-08-04T00:39:53.972Z,23.71
2022-08-04T00:40:53.927Z,23.78
2022-08-04T00:41:56.209Z,23.68
2022-08-04T00:42:58.987Z,23.65
2022-08-04T00:43:54.872Z,23.61
2022-08-04T00:44:53.878Z,23.59
2022-08-04T00:46:15.163Z,23.56
2022-08-04T00:46:54.817Z,23.55
2022-08-04T00:47:53.798Z,23.51
2022-08-04T00:48:53.777Z,23.56
2022-08-04T00:49:53.798Z,23.59
2022-08-04T00:50:53.746Z,23.48
2022-08-04T00:52:31.854Z,23.63
2022-08-04T00:52:54.708Z,23.51
2022-08-04T00:53:54.764Z,23.50
2022-08-04T00:54:53.699Z,23.56
2022-08-04T00:55:53.653Z,23.50
2022-08-04T00:56:53.635Z,23.55
2022-08-04T00:57:53.613Z,23.54
2022-08-04T00:58:53.601Z,23.56
2022-08-04T00:59:53.609Z,23.59
2022-08-04T01:00:53.563Z,23.58
2022-08-04T01:01:53.645Z,23.59
2022-08-04T01:02:53.528Z,23.61
2022-08-04T01:03:53.507Z,23.58
2022-08-04T01:04:53.517Z,23.63
2022-08-04T01:05:53.473Z,23.58
2022-08-04T01:06:56.447Z,23.59
2022-08-04T01:07:53.434Z,23.59
2022-08-04T01:08:53.416Z,23.51
2022-08-04T01:09:53.424Z,23.65
2022-08-04T01:10:53.378Z,23.55
2022-08-04T01:11:56.828Z,23.59
2022-08-04T01:12:53.340Z,23.46
2022-08-04T01:13:53.323Z,23.55
2022-08-04T01:14:53.334Z,23.54
2022-08-04T01:16:00.135Z,23.54
2022-08-04T01:16:54.267Z,23.56
2022-08-04T01:17:53.253Z,23.46
2022-08-04T01:18:53.227Z,23.51
2022-08-04T01:19:53.251Z,23.51
2022-08-04T01:20:53.197Z,23.48
2022-08-04T01:21:53.175Z,23.47
2022-08-04T01:22:53.161Z,23.40
2022-08-04T01:23:53.143Z,23.44
2022-08-04T01:24:53.153Z,23.54
2022-08-04T01:25:53.107Z,23.47
2022-08-04T01:26:57.956Z,23.34
2022-08-04T01:27:54.067Z,23.37
2022-08-04T01:28:53.049Z,23.37
2022-08-04T01:29:55.586Z,23.37
2022-08-04T01:30:53.014Z,23.28
2022-08-04T01:31:52.994Z,23.41
2022-08-04T01:32:52.978Z,23.34
2022-08-04T01:34:03.314Z,23.25
2022-08-04T01:34:53.965Z,23.27
2022-08-04T01:35:52.920Z,23.25
2022-08-04T01:36:52.943Z,23.24
2022-08-04T01:37:52.888Z,23.27
2022-08-04T01:38:52.923Z,23.25
2022-08-04T01:39:52.875Z,23.20
2022-08-04T01:40:52.828Z,23.18
2022-08-04T01:41:58.297Z,23.17
2022-08-04T01:42:53.794Z,23.20
2022-08-04T01:43:52.772Z,23.13
2022-08-04T01:44:52.777Z,23.06
2022-08-04T01:45:52.733Z,23.06
2022-08-04T01:46:52.717Z,22.99
2022-08-04T01:47:52.707Z,22.99
2022-08-04T01:48:52.676Z,23.00
2022-08-04T01:49:52.683Z,22.93
2022-08-04T01:50:52.814Z,22.96
2022-08-04T01:51:52.617Z,22.90
2022-08-04T01:52:52.597Z,22.88
2022-08-04T01:53:52.579Z,22.94
2022-08-04T01:54:52.605Z,22.90
2022-08-04T01:55:55.432Z,22.91
2022-08-04T01:56:52.531Z,22.94
2022-08-04T01:57:52.514Z,22.84
2022-08-04T01:58:52.491Z,22.96
2022-08-04T01:59:52.498Z,22.91
2022-08-04T02:00:56.328Z,22.87
2022-08-04T02:01:53.503Z,22.90
2022-08-04T02:02:52.469Z,22.98
2022-08-04T02:04:20.426Z,22.99
2022-08-04T02:04:53.406Z,22.88
2022-08-04T02:06:03.684Z,22.91
2022-08-04T02:06:53.344Z,22.93
2022-08-04T02:07:52.325Z,22.96
2022-08-04T02:08:52.308Z,22.94
2022-08-04T02:09:54.381Z,22.94
2022-08-04T02:10:52.270Z,23.00
2022-08-04T02:11:52.248Z,22.98
2022-08-04T02:12:52.234Z,22.87
2022-08-04T02:13:52.241Z,22.93
2022-08-04T02:14:52.221Z,22.88
2022-08-04T02:15:52.194Z,22.90
2022-08-04T02:16:52.783Z,22.83
2022-08-04T02:17:52.144Z,22.70
2022-08-04T02:18:52.124Z,22.76
2022-08-04T02:19:52.131Z,22.76
2022-08-04T02:20:52.087Z,22.72
2022-08-04T02:21:52.068Z,22.69
2022-08-04T02:22:52.053Z,22.73
2022-08-04T02:23:52.030Z,22.68
2022-08-04T02:24:52.039Z,22.70
2022-08-04T02:25:51.990Z,22.75
2022-08-04T02:26:51.973Z,22.66
2022-08-04T02:27:59.184Z,22.72
2022-08-04T02:28:52.931Z,22.59
2022-08-04T02:29:51.943Z,22.70
2022-08-04T02:30:51.894Z,22.73
2022-08-04T02:31:51.873Z,22.69
2022-08-04T02:32:51.853Z,22.72
2022-08-04T02:33:51.834Z,22.72
2022-08-04T02:34:51.841Z,22.73
2022-08-04T02:35:51.806Z,22.70
2022-08-04T02:36:51.778Z,22.73
2022-08-04T02:37:51.763Z,22.66
2022-08-04T02:38:51.830Z,22.75
2022-08-04T02:39:51.792Z,22.78
2022-08-04T02:40:51.707Z,22.72
2022-08-04T02:41:51.682Z,22.72
2022-08-04T02:42:52.671Z,22.84
2022-08-04T02:43:52.848Z,22.84
2022-08-04T02:44:52.669Z,22.70
2022-08-04T02:45:51.615Z,22.75
2022-08-04T02:46:51.598Z,22.73
2022-08-04T02:48:29.477Z,22.70
2022-08-04T02:48:52.561Z,22.80
2022-08-04T02:49:51.570Z,22.72
2022-08-04T02:50:52.194Z,22.88
2022-08-04T02:51:51.522Z,22.68
2022-08-04T02:52:51.483Z,22.75
2022-08-04T02:53:51.497Z,22.69
2022-08-04T02:54:51.475Z,22.81
2022-08-04T02:55:53.274Z,22.76
2022-08-04T02:56:52.410Z,22.78
2022-08-04T02:57:51.392Z,22.75
2022-08-04T02:58:51.376Z,22.75
2022-08-04T02:59:51.382Z,22.76
2022-08-04T03:00:51.395Z,22.76
2022-08-04T03:01:57.914Z,22.75
2022-08-04T03:02:52.297Z,22.69
2022-08-04T03:03:51.283Z,22.73
2022-08-04T03:04:51.290Z,22.78
2022-08-04T03:06:00.871Z,22.75
2022-08-04T03:06:52.223Z,22.68
2022-08-04T03:07:51.209Z,22.69
2022-08-04T03:08:51.186Z,22.73
2022-08-04T03:09:51.196Z,22.76
2022-08-04T03:10:51.153Z,22.70
2022-08-04T03:11:51.132Z,22.72
2022-08-04T03:12:51.135Z,22.75
2022-08-04T03:13:52.095Z,22.78
2022-08-04T03:14:51.099Z,22.76
2022-08-04T03:15:51.055Z,22.76
2022-08-04T03:16:51.039Z,22.84
2022-08-04T03:17:52.490Z,22.70
2022-08-04T03:18:50.996Z,22.76
2022-08-04T03:19:51.009Z,22.78
2022-08-04T03:20:50.965Z,22.76
2022-08-04T03:21:50.945Z,22.72
2022-08-04T03:23:11.971Z,22.83
2022-08-04T03:23:52.913Z,22.80
2022-08-04T03:24:50.921Z,22.69
2022-08-04T03:25:54.405Z,22.72
2022-08-04T03:26:51.852Z,22.72
2022-08-04T03:27:50.831Z,22.78
2022-08-04T03:28:50.816Z,22.73
2022-08-04T03:29:50.829Z,22.68
2022-08-04T03:30:50.782Z,22.68
2022-08-04T03:31:50.768Z,22.73
2022-08-04T03:32:50.747Z,22.68
2022-08-04T03:33:50.727Z,22.80
2022-08-04T03:34:50.736Z,22.73
2022-08-04T03:35:50.719Z,22.85
2022-08-04T03:36:50.670Z,22.88
2022-08-04T03:37:50.665Z,22.80
2022-08-04T03:38:56.917Z,22.78
2022-08-04T03:39:51.641Z,22.87
2022-08-04T03:40:50.600Z,22.90
2022-08-04T03:41:54.913Z,22.90
2022-08-04T03:42:51.560Z,22.93
2022-08-04T03:43:58.164Z,23.08
2022-08-04T03:44:51.550Z,23.05
2022-08-04T03:45:50.506Z,23.10
2022-08-04T03:46:50.492Z,23.13
2022-08-04T03:47:50.472Z,23.21
2022-08-04T03:48:50.453Z,23.17
2022-08-04T03:49:50.467Z,23.23
2022-08-04T03:50:50.448Z,23.25
2022-08-04T03:51:50.399Z,23.28
2022-08-04T03:52:50.383Z,23.39
2022-08-04T03:53:50.361Z,23.37
2022-08-04T03:54:50.344Z,23.27
2022-08-04T03:55:50.356Z,23.41
2022-08-04T03:56:50.308Z,23.43
2022-08-04T03:57:50.292Z,23.50
2022-08-04T03:58:50.272Z,23.65
2022-08-04T03:59:50.255Z,23.74
2022-08-04T04:00:50.261Z,23.98
2022-08-04T04:02:01.061Z,24.17
2022-08-04T04:02:51.251Z,24.33
2022-08-04T04:03:50.181Z,24.48
2022-08-04T04:04:50.166Z,24.68
2022-08-04T04:05:59.711Z,24.81
2022-08-04T04:06:54.185Z,24.99
2022-08-04T04:08:01.359Z,25.14
2022-08-04T04:08:51.095Z,25.25
2022-08-04T04:09:58.092Z,25.54
2022-08-04T04:10:51.111Z,25.78
2022-08-04T04:11:56.334Z,25.96
2022-08-04T04:12:51.018Z,26.13
2022-08-04T04:13:49.998Z,26.44
2022-08-04T04:14:49.985Z,26.58
2022-08-04T04:15:50.396Z,26.80
2022-08-04T04:16:50.944Z,27.05
2022-08-04T04:17:49.922Z,27.21
2022-08-04T04:18:49.907Z,27.36
2022-08-04T04:19:49.888Z,27.52
2022-08-04T04:20:49.921Z,27.59
2022-08-04T04:21:49.848Z,27.80
2022-08-04T04:22:49.825Z,27.93
2022-08-04T04:23:49.809Z,27.90
2022-08-04T04:24:49.793Z,28.23
2022-08-04T04:25:49.798Z,28.54
2022-08-04T04:26:49.751Z,28.74
2022-08-04T04:27:49.729Z,29.19
2022-08-04T04:28:49.712Z,29.17
2022-08-04T04:29:49.694Z,29.01
2022-08-04T04:30:49.700Z,28.91
2022-08-04T04:31:49.654Z,28.76
2022-08-04T04:32:49.645Z,28.75
2022-08-04T04:33:49.624Z,28.79
2022-08-04T04:34:49.602Z,28.97
2022-08-04T04:35:49.609Z,29.35
2022-08-04T04:36:49.568Z,29.73
2022-08-04T04:37:49.546Z,29.98
2022-08-04T04:38:49.526Z,29.90
2022-08-04T04:39:49.518Z,30.02
2022-08-04T04:40:49.522Z,30.47
2022-08-04T04:41:49.474Z,30.75
2022-08-04T04:42:49.462Z,31.15
2022-08-04T04:43:50.470Z,31.52
2022-08-04T04:44:49.431Z,31.85
2022-08-04T04:45:49.429Z,32.18
2022-08-04T04:46:49.389Z,32.31
2022-08-04T04:48:08.230Z,32.49
2022-08-04T04:48:50.348Z,32.49
2022-08-04T04:49:49.334Z,32.75
2022-08-04T04:50:49.341Z,32.89
2022-08-04T04:51:49.295Z,33.19
2022-08-04T04:52:49.277Z,33.27
2022-08-04T04:53:49.260Z,33.58
2022-08-04T04:54:49.242Z,33.79
2022-08-04T04:55:49.254Z,34.33
2022-08-04T04:56:49.202Z,34.58
2022-08-04T04:57:53.825Z,34.90
2022-08-04T04:58:50.171Z,35.19
2022-08-04T04:59:49.158Z,35.33
2022-08-04T05:00:49.165Z,35.22
2022-08-04T05:01:49.119Z,35.26
2022-08-04T05:02:49.098Z,35.14
2022-08-04T05:03:49.071Z,35.51
2022-08-04T05:04:50.063Z,35.64
2022-08-04T05:05:49.078Z,35.45
2022-08-04T05:06:54.542Z,35.36
2022-08-04T05:07:50.011Z,35.15
2022-08-04T05:08:52.504Z,35.53
2022-08-04T05:09:50.978Z,35.76
2022-08-04T05:10:48.989Z,35.93
2022-08-04T05:11:48.944Z,36.02
2022-08-04T05:14:35.949Z,36.18
2022-08-04T05:14:37.624Z,36.67
2022-08-04T05:14:49.891Z,36.83
2022-08-04T05:15:48.899Z,36.59
2022-08-04T05:16:48.854Z,36.89
2022-08-04T05:17:48.836Z,37.48
2022-08-04T05:18:48.823Z,37.87
2022-08-04T05:19:48.809Z,38.14
2022-08-04T05:20:48.820Z,38.36
2022-08-04T05:21:48.766Z,38.31
2022-08-04T05:22:48.750Z,37.59
2022-08-04T05:23:48.733Z,37.02
2022-08-04T05:24:48.724Z,36.99
2022-08-04T05:25:58.867Z,37.20
2022-08-04T05:26:49.687Z,37.45
2022-08-04T05:27:48.666Z,37.55
2022-08-04T05:28:48.654Z,37.25
2022-08-04T05:29:48.640Z,36.81
2022-08-04T05:30:48.838Z,36.83
2022-08-04T05:31:48.606Z,36.68
2022-08-04T05:32:48.598Z,36.07
2022-08-04T05:33:48.574Z,35.78
2022-08-04T05:34:48.563Z,35.39
2022-08-04T05:36:16.847Z,35.37
2022-08-04T05:36:49.529Z,36.02
2022-08-04T05:37:48.511Z,36.18
2022-08-04T05:38:49.492Z,35.90
2022-08-04T05:39:48.481Z,35.18
2022-08-04T05:40:48.502Z,34.61
2022-08-04T05:41:55.762Z,34.27
2022-08-04T05:42:49.434Z,34.06
2022-08-04T05:43:48.414Z,33.90
2022-08-04T05:44:51.137Z,34.17
2022-08-04T05:45:49.455Z,34.48
2022-08-04T05:46:54.500Z,34.39
2022-08-04T05:47:49.355Z,34.06
2022-08-04T05:48:48.338Z,34.52
2022-08-04T05:50:01.045Z,35.39
2022-08-04T05:50:49.339Z,36.04
2022-08-04T05:51:48.293Z,36.02
2022-08-04T05:52:48.279Z,35.82
2022-08-04T05:53:48.259Z,35.29
2022-08-04T05:54:48.247Z,34.97
2022-08-04T05:55:57.240Z,34.16
2022-08-04T05:56:49.214Z,34.32
2022-08-04T05:57:49.985Z,34.02
2022-08-04T05:58:48.191Z,34.45
2022-08-04T05:59:48.172Z,34.62
2022-08-04T06:00:52.374Z,34.86
2022-08-04T06:01:55.279Z,34.40
2022-08-04T06:02:49.154Z,34.13
2022-08-04T06:03:48.107Z,33.92
2022-08-04T06:04:48.093Z,33.96
2022-08-04T06:05:48.075Z,34.05
2022-08-04T06:06:48.058Z,34.13
2022-08-04T06:08:04.595Z,34.13
2022-08-04T06:08:49.028Z,34.60
2022-08-04T06:09:48.012Z,33.98
2022-08-04T06:10:48.023Z,34.27
2022-08-04T06:12:03.451Z,34.71
2022-08-04T06:12:48.968Z,35.36
2022-08-04T06:13:50.948Z,35.07
2022-08-04T06:14:47.932Z,34.93
2022-08-04T06:15:47.949Z,35.53
2022-08-04T06:16:51.190Z,36.16
2022-08-04T06:19:56.236Z,36.35
2022-08-04T06:20:01.809Z,37.30
2022-08-04T06:20:02.829Z,36.58
2022-08-04T06:20:50.175Z,37.75
2022-08-04T06:21:47.822Z,37.72
2022-08-04T06:22:47.813Z,36.42
2022-08-04T06:23:53.722Z,36.42
2022-08-04T06:24:48.779Z,35.92
2022-08-04T06:25:47.789Z,36.08
2022-08-04T06:26:47.752Z,36.36
2022-08-04T06:27:47.732Z,35.86
2022-08-04T06:28:47.715Z,36.02
2022-08-04T06:29:50.728Z,35.93
2022-08-04T06:30:47.720Z,36.14
2022-08-04T06:32:26.931Z,36.37
2022-08-04T06:32:49.652Z,36.54
2022-08-04T06:33:54.329Z,36.49
2022-08-04T06:34:48.626Z,36.62
2022-08-04T06:35:47.640Z,36.68
2022-08-04T06:36:47.595Z,37.10
2022-08-04T06:37:47.922Z,36.88
2022-08-04T06:38:47.555Z,36.51
2022-08-04T06:39:48.542Z,35.70
2022-08-04T06:40:47.569Z,35.41
2022-08-04T06:42:02.453Z,35.02
2022-08-04T06:42:48.500Z,34.73
2022-08-04T06:43:47.484Z,34.25
2022-08-04T06:44:47.464Z,34.20
2022-08-04T06:45:47.477Z,33.77
2022-08-04T06:46:47.436Z,33.94
2022-08-04T06:47:47.415Z,34.29
2022-08-04T06:48:47.403Z,34.40
2022-08-04T06:51:25.116Z,34.64
2022-08-04T06:51:27.654Z,34.86
2022-08-04T06:51:49.472Z,34.29
2022-08-04T06:52:48.347Z,34.24
2022-08-04T06:53:47.325Z,33.92
2022-08-04T06:54:47.313Z,33.77
2022-08-04T06:55:47.305Z,33.53
2022-08-04T06:56:47.310Z,33.68
2022-08-04T06:57:47.295Z,34.17
2022-08-04T06:58:47.252Z,34.62
2022-08-04T06:59:47.237Z,35.00
2022-08-04T07:00:47.221Z,34.92
2022-08-04T07:01:47.263Z,35.44
2022-08-04T07:02:47.224Z,35.53
2022-08-04T07:03:50.715Z,35.33
2022-08-04T07:04:47.158Z,35.58
2022-08-04T07:05:47.141Z,36.30
2022-08-04T07:06:47.151Z,36.84
2022-08-04T07:07:57.994Z,37.29
2022-08-04T07:08:48.100Z,37.21
2022-08-04T07:09:47.082Z,37.94
2022-08-04T07:10:47.068Z,38.42
2022-08-04T07:11:47.082Z,37.82
2022-08-04T07:12:47.039Z,37.10
2022-08-04T07:13:47.026Z,37.39
2022-08-04T07:14:47.013Z,37.86
2022-08-04T07:15:46.993Z,37.56
2022-08-04T07:16:47.015Z,37.29
2022-08-04T07:17:46.994Z,37.35
2022-08-04T07:18:46.954Z,37.84
2022-08-04T07:19:46.942Z,38.40
2022-08-04T07:20:46.918Z,38.89
2022-08-04T07:22:16.218Z,39.00
2022-08-04T07:22:47.891Z,39.33
2022-08-04T07:23:46.937Z,39.22
2022-08-04T07:24:46.863Z,39.25
2022-08-04T07:26:11.310Z,39.29
2022-08-04T07:26:47.861Z,38.86
2022-08-04T07:27:48.349Z,38.36
2022-08-04T07:28:46.812Z,38.46
2022-08-04T07:29:46.793Z,38.83
2022-08-04T07:30:46.780Z,38.71
2022-08-04T07:31:46.792Z,38.50
2022-08-04T07:32:46.744Z,38.60
2022-08-04T07:33:46.729Z,38.48
2022-08-04T07:34:49.879Z,38.28
2022-08-04T07:36:05.399Z,37.94
2022-08-04T07:36:50.620Z,37.65
2022-08-04T07:37:46.671Z,37.72
2022-08-04T07:38:51.845Z,37.11
2022-08-04T07:39:47.861Z,37.18
2022-08-04T07:40:46.630Z,37.47
2022-08-04T07:41:49.011Z,37.68
2022-08-04T07:42:47.595Z,38.08
2022-08-04T07:43:46.615Z,38.21
2022-08-04T07:44:46.568Z,37.42
2022-08-04T07:45:46.580Z,36.02
2022-08-04T07:46:46.564Z,35.85
2022-08-04T07:48:04.794Z,36.00
2022-08-04T07:48:47.529Z,36.25
2022-08-04T07:49:56.078Z,35.97
2022-08-04T07:50:47.477Z,35.76
2022-08-04T07:51:46.492Z,36.00
2022-08-04T07:52:58.519Z,36.17
2022-08-04T07:53:54.348Z,36.00
2022-08-04T07:54:47.423Z,35.85
2022-08-04T07:55:46.407Z,36.33
2022-08-04T07:56:46.423Z,35.90
2022-08-04T07:57:46.725Z,36.27
2022-08-04T07:58:46.360Z,36.07
2022-08-04T07:59:49.981Z,36.07
2022-08-04T08:00:47.327Z,36.62
2022-08-04T08:01:46.341Z,36.45
2022-08-04T08:02:46.310Z,36.65
2022-08-04T08:03:46.338Z,36.51
2022-08-04T08:04:46.269Z,36.39
2022-08-04T08:06:16.922Z,36.45
2022-08-04T08:06:47.268Z,36.45
2022-08-04T08:07:50.909Z,36.57
2022-08-04T08:08:47.204Z,36.95
2022-08-04T08:09:46.197Z,37.42
2022-08-04T08:10:46.178Z,37.59
2022-08-04T08:12:35.503Z,37.84
2022-08-04T08:12:51.436Z,37.90
2022-08-04T08:13:47.142Z,37.39
2022-08-04T08:14:46.118Z,37.67
2022-08-04T08:15:46.121Z,37.53
2022-08-04T08:16:46.119Z,37.92
2022-08-04T08:17:59.830Z,37.97
2022-08-04T08:18:50.107Z,38.01
2022-08-04T08:19:47.030Z,38.26
2022-08-04T08:20:47.025Z,37.59
2022-08-04T08:21:59.938Z,37.60
2022-08-04T08:22:45.998Z,37.93
2022-08-04T08:23:45.987Z,37.63
2022-08-04T08:24:45.973Z,37.23
2022-08-04T08:25:45.953Z,35.98
2022-08-04T08:26:45.967Z,35.51
2022-08-04T08:27:56.285Z,35.58
2022-08-04T08:28:46.908Z,36.01
2022-08-04T08:29:45.886Z,36.77
2022-08-04T08:30:45.871Z,37.25
2022-08-04T08:31:58.463Z,37.77
2022-08-04T08:32:46.842Z,38.15
2022-08-04T08:33:45.828Z,37.90
2022-08-04T08:34:45.823Z,37.60
2022-08-04T08:35:53.122Z,37.97
2022-08-04T08:36:46.811Z,37.94
2022-08-04T08:37:45.775Z,37.99
2022-08-04T08:38:45.749Z,37.65
2022-08-04T08:39:45.921Z,37.08
2022-08-04T08:40:45.718Z,36.96
2022-08-04T08:41:45.729Z,37.30
2022-08-04T08:42:46.691Z,37.70
2022-08-04T08:44:05.788Z,37.83
2022-08-04T08:44:46.661Z,37.33
2022-08-04T08:45:45.647Z,37.37
2022-08-04T08:46:49.839Z,37.39
2022-08-04T08:48:06.437Z,36.72
2022-08-04T08:48:46.598Z,36.68
2022-08-04T08:50:02.152Z,36.72
2022-08-04T08:50:46.566Z,36.51
2022-08-04T08:51:47.502Z,36.76
2022-08-04T08:52:55.305Z,37.20
2022-08-04T08:53:46.525Z,37.37
2022-08-04T08:54:45.517Z,37.23
2022-08-04T08:55:45.489Z,37.07
2022-08-04T08:56:45.503Z,37.17
2022-08-04T08:57:59.778Z,37.11
2022-08-04T08:58:46.439Z,37.45
2022-08-04T08:59:45.427Z,37.47
2022-08-04T09:00:45.410Z,37.25
2022-08-04T09:01:45.480Z,37.11
2022-08-04T09:02:45.378Z,37.11
2022-08-04T09:03:45.355Z,36.84
2022-08-04T09:04:45.908Z,36.93
2022-08-04T09:05:45.336Z,36.88
2022-08-04T09:06:45.343Z,36.99
2022-08-04T09:07:45.299Z,37.25
2022-08-04T09:08:45.283Z,37.28
2022-08-04T09:09:45.272Z,37.26
2022-08-04T09:10:45.256Z,37.23
2022-08-04T09:11:45.264Z,37.23
2022-08-04T09:12:45.215Z,37.47
2022-08-04T09:13:45.205Z,37.30
2022-08-04T09:14:45.187Z,37.58
2022-08-04T09:15:45.170Z,37.15
2022-08-04T09:16:45.179Z,36.96
2022-08-04T09:17:45.146Z,37.06
2022-08-04T09:18:45.121Z,37.36
2022-08-04T09:19:45.101Z,37.45
2022-08-04T09:20:45.083Z,37.56
2022-08-04T09:21:45.090Z,37.47
2022-08-04T09:22:45.049Z,36.88
2022-08-04T09:23:45.034Z,36.08
2022-08-04T09:24:45.017Z,36.16
2022-08-04T09:25:45.017Z,35.98
2022-08-04T09:26:45.009Z,35.79
2022-08-04T09:27:44.965Z,35.64
2022-08-04T09:28:54.483Z,35.58
2022-08-04T09:29:46.931Z,36.01
2022-08-04T09:30:44.914Z,36.00
2022-08-04T09:31:51.349Z,36.02
2022-08-04T09:32:45.882Z,35.89
2022-08-04T09:33:46.151Z,35.34
2022-08-04T09:34:44.849Z,35.22
2022-08-04T09:35:44.828Z,35.37
2022-08-04T09:36:44.843Z,35.24
2022-08-04T09:37:45.904Z,35.19
2022-08-04T09:38:47.962Z,35.66
2022-08-04T09:39:45.766Z,35.60
2022-08-04T09:40:55.432Z,35.79
2022-08-04T09:41:49.582Z,35.70
2022-08-04T09:42:45.723Z,35.48
2022-08-04T09:44:42.836Z,35.27
2022-08-04T09:44:52.215Z,35.11
2022-08-04T09:45:45.667Z,35.30
2022-08-04T09:46:44.676Z,35.49
2022-08-04T09:47:44.631Z,35.42
2022-08-04T09:48:44.616Z,35.29
2022-08-04T09:49:44.596Z,35.12
2022-08-04T09:50:48.380Z,34.89
2022-08-04T09:51:57.613Z,34.78
2022-08-04T09:52:45.545Z,34.96
2022-08-04T09:53:44.530Z,35.31
2022-08-04T09:54:44.519Z,35.63
2022-08-04T09:55:53.630Z,35.80
2022-08-04T09:56:45.505Z,35.66
2022-08-04T09:57:44.500Z,35.66
2022-08-04T09:58:44.447Z,35.70
2022-08-04T09:59:44.428Z,35.83
2022-08-04T10:00:44.419Z,35.73
2022-08-04T10:01:44.423Z,35.49
2022-08-04T10:02:44.465Z,35.73
2022-08-04T10:03:44.358Z,35.71
2022-08-04T10:04:44.344Z,35.68
2022-08-04T10:05:44.322Z,35.92
2022-08-04T10:06:44.344Z,35.45
2022-08-04T10:07:44.289Z,35.48
2022-08-04T10:08:45.296Z,35.66
2022-08-04T10:09:44.252Z,35.92
2022-08-04T10:10:44.237Z,36.14
2022-08-04T10:11:56.285Z,35.97
2022-08-04T10:12:45.201Z,35.93
2022-08-04T10:13:44.208Z,36.09
2022-08-04T10:14:44.168Z,36.42
2022-08-04T10:15:44.146Z,36.62
2022-08-04T10:16:44.127Z,36.33
2022-08-04T10:17:51.835Z,35.88
2022-08-04T10:18:45.118Z,35.79
2022-08-04T10:19:44.074Z,35.71
2022-08-04T10:20:46.335Z,35.71
2022-08-04T10:21:59.072Z,35.78
2022-08-04T10:23:09.492Z,36.02
2022-08-04T10:23:56.320Z,36.25
2022-08-04T10:24:44.985Z,36.43
2022-08-04T10:26:07.192Z,36.61
2022-08-04T10:26:44.982Z,36.84
2022-08-04T10:27:43.941Z,37.07
2022-08-04T10:28:43.920Z,37.28
2022-08-04T10:29:43.900Z,37.18
2022-08-04T10:30:43.879Z,37.28
2022-08-04T10:31:43.871Z,37.10
2022-08-04T10:32:43.881Z,36.47
2022-08-04T10:33:43.861Z,36.70
2022-08-04T10:34:43.811Z,36.61
2022-08-04T10:35:43.798Z,36.72
2022-08-04T10:36:43.782Z,36.93
2022-08-04T10:37:59.089Z,37.25
2022-08-04T10:38:44.773Z,37.36
2022-08-04T10:39:44.509Z,37.68
2022-08-04T10:40:44.718Z,37.63
2022-08-04T10:41:43.698Z,37.65
2022-08-04T10:42:43.708Z,37.47
2022-08-04T10:43:43.659Z,37.55
2022-08-04T10:44:43.640Z,37.65
2022-08-04T10:45:43.626Z,37.70
2022-08-04T10:46:43.612Z,37.11
2022-08-04T10:47:43.623Z,37.02
2022-08-04T10:48:45.650Z,36.79
2022-08-04T10:49:43.559Z,36.37
2022-08-04T10:50:43.538Z,36.27
2022-08-04T10:51:57.572Z,36.39
2022-08-04T10:52:44.537Z,36.23
2022-08-04T10:53:43.492Z,36.08
2022-08-04T10:54:43.478Z,36.04
2022-08-04T10:56:08.018Z,36.20
2022-08-04T10:56:44.443Z,36.33
2022-08-04T10:57:43.450Z,36.36
2022-08-04T10:58:47.803Z,36.55
2022-08-04T10:59:44.394Z,36.52
2022-08-04T11:00:43.374Z,36.73
2022-08-04T11:02:01.072Z,36.47
2022-08-04T11:02:44.423Z,35.90
2022-08-04T11:03:43.319Z,36.07
2022-08-04T11:04:43.319Z,36.04
2022-08-04T11:05:44.663Z,35.97
2022-08-04T11:06:43.263Z,36.08
2022-08-04T11:07:43.280Z,35.85
2022-08-04T11:08:43.230Z,35.80
2022-08-04T11:09:43.211Z,36.00
2022-08-04T11:10:43.198Z,36.27
2022-08-04T11:12:01.000Z,36.24
2022-08-04T11:12:44.188Z,35.97
2022-08-04T11:13:46.929Z,35.90
2022-08-04T11:14:44.122Z,36.09
2022-08-04T11:15:43.100Z,36.07
2022-08-04T11:16:43.116Z,36.14
2022-08-04T11:17:43.093Z,35.89
2022-08-04T11:18:43.052Z,35.89
2022-08-04T11:19:47.398Z,35.95
2022-08-04T11:20:44.018Z,36.02
2022-08-04T11:21:43.001Z,36.02
2022-08-04T11:22:43.001Z,36.01
2022-08-04T11:23:43.992Z,36.04
2022-08-04T11:24:42.953Z,36.31
2022-08-04T11:25:42.938Z,36.25
2022-08-04T11:26:42.925Z,36.36
2022-08-04T11:27:42.925Z,36.42
2022-08-04T11:28:42.878Z,36.35
2022-08-04T11:29:42.863Z,36.52
2022-08-04T11:30:42.847Z,36.47
2022-08-04T11:31:42.842Z,36.40
2022-08-04T11:32:42.837Z,36.52
2022-08-04T11:33:42.792Z,36.31
2022-08-04T11:34:42.777Z,36.36
2022-08-04T11:35:43.759Z,36.47
2022-08-04T11:36:42.742Z,36.57
2022-08-04T11:37:42.752Z,36.49
2022-08-04T11:38:42.708Z,36.59
2022-08-04T11:39:42.734Z,36.58
2022-08-04T11:40:42.669Z,36.59
2022-08-04T11:41:43.656Z,36.45
2022-08-04T11:42:42.667Z,36.45
2022-08-04T11:44:01.417Z,36.40
2022-08-04T11:44:43.605Z,36.47
2022-08-04T11:45:42.592Z,36.55
2022-08-04T11:46:42.574Z,36.55
2022-08-04T11:47:42.581Z,36.35
2022-08-04T11:48:42.538Z,36.49
2022-08-04T11:49:56.046Z,36.52
2022-08-04T11:50:43.504Z,36.49
2022-08-04T11:51:42.483Z,36.39
2022-08-04T11:52:42.495Z,36.46
2022-08-04T11:53:42.452Z,36.61
2022-08-04T11:54:42.430Z,36.83
2022-08-04T11:56:07.909Z,36.64
2022-08-04T11:56:43.403Z,36.92
2022-08-04T11:57:42.408Z,36.92
2022-08-04T11:58:50.052Z,36.88
2022-08-04T11:59:43.346Z,36.65
2022-08-04T12:00:42.338Z,36.81
2022-08-04T12:01:42.313Z,36.92
2022-08-04T12:02:42.373Z,36.77
2022-08-04T12:03:42.272Z,36.62
2022-08-04T12:04:43.256Z,36.70
2022-08-04T12:05:42.239Z,36.64
2022-08-04T12:06:42.228Z,36.76
2022-08-04T12:07:43.676Z,36.65
2022-08-04T12:08:42.188Z,36.61
2022-08-04T12:09:42.175Z,36.37
2022-08-04T12:10:42.798Z,36.37
2022-08-04T12:11:43.137Z,35.71
2022-08-04T12:12:42.146Z,35.29
2022-08-04T12:13:42.104Z,35.14
2022-08-04T12:14:42.087Z,35.15
2022-08-04T12:15:42.068Z,35.05
2022-08-04T12:16:42.047Z,35.04
2022-08-04T12:17:52.516Z,35.02
2022-08-04T12:18:42.029Z,35.10
2022-08-04T12:19:54.714Z,35.27
2022-08-04T12:20:43.003Z,35.63
2022-08-04T12:21:43.581Z,35.88
2022-08-04T12:22:42.964Z,35.76
2022-08-04T12:23:41.924Z,35.42
2022-08-04T12:24:41.905Z,35.56
2022-08-04T12:25:44.954Z,35.60
2022-08-04T12:26:42.879Z,35.78
2022-08-04T12:27:41.895Z,35.64
2022-08-04T12:29:08.498Z,35.85
2022-08-04T12:29:43.832Z,35.95
2022-08-04T12:30:58.982Z,36.02
2022-08-04T12:31:42.798Z,36.28
2022-08-04T12:32:48.054Z,36.35
2022-08-04T12:34:03.645Z,36.28
2022-08-04T12:34:42.747Z,36.39
2022-08-04T12:36:10.338Z,36.31
2022-08-04T12:36:42.712Z,36.25
2022-08-04T12:37:41.720Z,36.31
2022-08-04T12:38:41.677Z,36.39
2022-08-04T12:40:21.562Z,36.40
2022-08-04T12:40:42.644Z,36.43
2022-08-04T12:41:41.623Z,36.21
2022-08-04T12:42:41.637Z,36.27
2022-08-04T12:43:42.591Z,36.33
2022-08-04T12:44:41.580Z,36.49
2022-08-04T12:45:41.560Z,36.58
2022-08-04T12:46:41.540Z,36.68
2022-08-04T12:47:41.882Z,36.74
2022-08-04T12:48:41.523Z,36.37
2022-08-04T12:49:41.488Z,36.51
2022-08-04T12:50:42.467Z,36.59
2022-08-04T12:52:06.664Z,36.42
2022-08-04T12:53:11.413Z,36.25